sensor_id;sensor_type;location;lat;lon;timestamp;pressure;altitude;pressure_sealevel;temperature
48894;BMP280;34710;35.798;139.446;2022-09-02T00:01:47;100767.55;;;25.99
48894;BMP280;34710;35.798;139.446;2022-09-02T00:04:18;100771.72;;;25.88
48894;BMP280;34710;35.798;139.446;2022-09-02T00:06:51;100773.08;;;25.79
48894;BMP280;34710;35.798;139.446;2022-09-02T00:09:23;100769.47;;;25.60
48894;BMP280;34710;35.798;139.446;2022-09-02T00:11:54;100776.00;;;26.00
48894;BMP280;34710;35.798;139.446;2022-09-02T00:14:27;100777.69;;;25.80
48894;BMP280;34710;35.798;139.446;2022-09-02T00:16:58;100777.29;;;26.13
48894;BMP280;34710;35.798;139.446;2022-09-02T00:19:29;100774.42;;;26.88
48894;BMP280;34710;35.798;139.446;2022-09-02T00:21:59;100781.51;;;26.69
48894;BMP280;34710;35.798;139.446;2022-09-02T00:24:29;100783.91;;;27.03
48894;BMP280;34710;35.798;139.446;2022-09-02T00:26:58;100781.73;;;26.83
48894;BMP280;34710;35.798;139.446;2022-09-02T00:29:29;100780.38;;;26.73
48894;BMP280;34710;35.798;139.446;2022-09-02T00:31:58;100779.52;;;27.04
48894;BMP280;34710;35.798;139.446;2022-09-02T00:34:27;100781.88;;;27.20
48894;BMP280;34710;35.798;139.446;2022-09-02T00:36:57;100786.66;;;27.35
48894;BMP280;34710;35.798;139.446;2022-09-02T00:39:26;100789.30;;;27.12
48894;BMP280;34710;35.798;139.446;2022-09-02T00:41:55;100790.62;;;26.70
48894;BMP280;34710;35.798;139.446;2022-09-02T00:44:24;100797.41;;;27.02
48894;BMP280;34710;35.798;139.446;2022-09-02T00:46:54;100804.80;;;27.37
48894;BMP280;34710;35.798;139.446;2022-09-02T00:49:26;100802.88;;;27.67
48894;BMP280;34710;35.798;139.446;2022-09-02T00:51:58;100801.74;;;27.57
48894;BMP280;34710;35.798;139.446;2022-09-02T00:54:33;100800.18;;;27.63
48894;BMP280;34710;35.798;139.446;2022-09-02T00:57:07;100800.91;;;27.30
48894;BMP280;34710;35.798;139.446;2022-09-02T00:59:44;100797.39;;;27.47
48894;BMP280;34710;35.798;139.446;2022-09-02T01:02:14;100801.82;;;27.97
48894;BMP280;34710;35.798;139.446;2022-09-02T01:04:44;100799.97;;;27.54
48894;BMP280;34710;35.798;139.446;2022-09-02T01:07:15;100801.99;;;27.62
48894;BMP280;34710;35.798;139.446;2022-09-02T01:09:44;100801.23;;;27.61
48894;BMP280;34710;35.798;139.446;2022-09-02T01:12:13;100799.07;;;27.67
48894;BMP280;34710;35.798;139.446;2022-09-02T01:14:43;100804.01;;;27.59
48894;BMP280;34710;35.798;139.446;2022-09-02T01:17:13;100806.77;;;27.81
48894;BMP280;34710;35.798;139.446;2022-09-02T01:19:52;100812.06;;;27.52
48894;BMP280;34710;35.798;139.446;2022-09-02T01:22:25;100811.60;;;27.25
48894;BMP280;34710;35.798;139.446;2022-09-02T01:24:59;100816.23;;;27.58
48894;BMP280;34710;35.798;139.446;2022-09-02T01:27:30;100816.47;;;27.46
48894;BMP280;34710;35.798;139.446;2022-09-02T01:30:00;100817.34;;;27.31
48894;BMP280;34710;35.798;139.446;2022-09-02T01:32:30;100817.46;;;27.54
48894;BMP280;34710;35.798;139.446;2022-09-02T01:34:59;100823.96;;;27.40
48894;BMP280;34710;35.798;139.446;2022-09-02T01:37:29;100822.64;;;27.79
48894;BMP280;34710;35.798;139.446;2022-09-02T01:39:58;100822.32;;;27.51
48894;BMP280;34710;35.798;139.446;2022-09-02T01:42:28;100820.19;;;27.42
48894;BMP280;34710;35.798;139.446;2022-09-02T01:44:57;100824.81;;;27.38
48894;BMP280;34710;35.798;139.446;2022-09-02T01:47:27;100830.69;;;27.74
48894;BMP280;34710;35.798;139.446;2022-09-02T01:49:56;100833.00;;;27.42
48894;BMP280;34710;35.798;139.446;2022-09-02T01:52:28;100832.81;;;27.70
48894;BMP280;34710;35.798;139.446;2022-09-02T01:54:58;100832.33;;;27.50
48894;BMP280;34710;35.798;139.446;2022-09-02T01:57:27;100830.35;;;27.44
48894;BMP280;34710;35.798;139.446;2022-09-02T01:59:56;100828.04;;;27.75
48894;BMP280;34710;35.798;139.446;2022-09-02T02:02:26;100823.05;;;27.56
48894;BMP280;34710;35.798;139.446;2022-09-02T02:04:55;100821.91;;;27.56
48894;BMP280;34710;35.798;139.446;2022-09-02T02:07:25;100825.16;;;28.07
48894;BMP280;34710;35.798;139.446;2022-09-02T02:09:55;100831.50;;;27.55
48894;BMP280;34710;35.798;139.446;2022-09-02T02:12:24;100838.30;;;27.88
48894;BMP280;34710;35.798;139.446;2022-09-02T02:14:54;100837.02;;;27.65
48894;BMP280;34710;35.798;139.446;2022-09-02T02:17:23;100841.60;;;27.68
48894;BMP280;34710;35.798;139.446;2022-09-02T02:19:53;100846.49;;;27.86
48894;BMP280;34710;35.798;139.446;2022-09-02T02:22:22;100846.66;;;27.62
48894;BMP280;34710;35.798;139.446;2022-09-02T02:24:52;100840.77;;;27.61
48894;BMP280;34710;35.798;139.446;2022-09-02T02:27:21;100839.53;;;28.03
48894;BMP280;34710;35.798;139.446;2022-09-02T02:29:51;100837.57;;;27.42
48894;BMP280;34710;35.798;139.446;2022-09-02T02:32:20;100829.25;;;27.89
48894;BMP280;34710;35.798;139.446;2022-09-02T02:34:49;100821.31;;;27.75
48894;BMP280;34710;35.798;139.446;2022-09-02T02:37:19;100821.96;;;27.56
48894;BMP280;34710;35.798;139.446;2022-09-02T02:39:48;100821.08;;;27.59
48894;BMP280;34710;35.798;139.446;2022-09-02T02:42:18;100814.09;;;27.50
48894;BMP280;34710;35.798;139.446;2022-09-02T02:44:47;100812.95;;;27.66
48894;BMP280;34710;35.798;139.446;2022-09-02T02:47:16;100810.79;;;27.76
48894;BMP280;34710;35.798;139.446;2022-09-02T02:49:46;100800.27;;;27.64
48894;BMP280;34710;35.798;139.446;2022-09-02T02:52:15;100797.40;;;27.86
48894;BMP280;34710;35.798;139.446;2022-09-02T02:54:44;100793.91;;;27.91
48894;BMP280;34710;35.798;139.446;2022-09-02T02:57:14;100803.05;;;27.89
48894;BMP280;34710;35.798;139.446;2022-09-02T02:59:43;100804.21;;;28.00
48894;BMP280;34710;35.798;139.446;2022-09-02T03:02:12;100805.82;;;27.98
48894;BMP280;34710;35.798;139.446;2022-09-02T03:04:43;100806.52;;;27.99
48894;BMP280;34710;35.798;139.446;2022-09-02T03:07:12;100808.52;;;27.98
48894;BMP280;34710;35.798;139.446;2022-09-02T03:09:42;100815.22;;;27.79
48894;BMP280;34710;35.798;139.446;2022-09-02T03:12:12;100818.43;;;27.77
48894;BMP280;34710;35.798;139.446;2022-09-02T03:14:42;100822.67;;;27.74
48894;BMP280;34710;35.798;139.446;2022-09-02T03:17:12;100820.95;;;27.93
48894;BMP280;34710;35.798;139.446;2022-09-02T03:19:40;100823.64;;;27.66
48894;BMP280;34710;35.798;139.446;2022-09-02T03:22:10;100820.90;;;27.66
48894;BMP280;34710;35.798;139.446;2022-09-02T03:24:39;100825.33;;;27.63
48894;BMP280;34710;35.798;139.446;2022-09-02T03:27:09;100820.61;;;27.68
48894;BMP280;34710;35.798;139.446;2022-09-02T03:29:38;100822.77;;;27.73
48894;BMP280;34710;35.798;139.446;2022-09-02T03:32:07;100819.20;;;27.60
48894;BMP280;34710;35.798;139.446;2022-09-02T03:34:37;100816.47;;;27.83
48894;BMP280;34710;35.798;139.446;2022-09-02T03:37:07;100808.71;;;27.81
48894;BMP280;34710;35.798;139.446;2022-09-02T03:39:36;100803.10;;;28.08
48894;BMP280;34710;35.798;139.446;2022-09-02T03:42:07;100801.81;;;28.14
48894;BMP280;34710;35.798;139.446;2022-09-02T03:44:36;100796.81;;;28.21
48894;BMP280;34710;35.798;139.446;2022-09-02T03:47:05;100795.69;;;28.16
48894;BMP280;34710;35.798;139.446;2022-09-02T03:49:35;100795.91;;;28.48
48894;BMP280;34710;35.798;139.446;2022-09-02T03:52:04;100798.56;;;28.58
48894;BMP280;34710;35.798;139.446;2022-09-02T03:54:33;100800.23;;;28.36
48894;BMP280;34710;35.798;139.446;2022-09-02T03:57:03;100801.09;;;28.08
48894;BMP280;34710;35.798;139.446;2022-09-02T03:59:32;100799.56;;;28.41
48894;BMP280;34710;35.798;139.446;2022-09-02T04:02:02;100800.33;;;28.18
48894;BMP280;34710;35.798;139.446;2022-09-02T04:04:31;100802.55;;;28.36
48894;BMP280;34710;35.798;139.446;2022-09-02T04:07:01;100788.83;;;28.30
48894;BMP280;34710;35.798;139.446;2022-09-02T04:09:30;100777.92;;;28.38
48894;BMP280;34710;35.798;139.446;2022-09-02T04:11:59;100779.75;;;28.52
48894;BMP280;34710;35.798;139.446;2022-09-02T04:14:30;100790.42;;;28.17
48894;BMP280;34710;35.798;139.446;2022-09-02T04:16:59;100792.97;;;28.53
48894;BMP280;34710;35.798;139.446;2022-09-02T04:19:28;100788.36;;;28.47
48894;BMP280;34710;35.798;139.446;2022-09-02T04:21:58;100779.93;;;28.53
48894;BMP280;34710;35.798;139.446;2022-09-02T04:24:28;100769.85;;;28.44
48894;BMP280;34710;35.798;139.446;2022-09-02T04:26:57;100761.60;;;28.49
48894;BMP280;34710;35.798;139.446;2022-09-02T04:29:26;100759.73;;;28.49
48894;BMP280;34710;35.798;139.446;2022-09-02T04:31:56;100753.47;;;28.45
48894;BMP280;34710;35.798;139.446;2022-09-02T04:34:26;100758.57;;;29.06
48894;BMP280;34710;35.798;139.446;2022-09-02T04:36:55;100759.87;;;28.92
48894;BMP280;34710;35.798;139.446;2022-09-02T04:39:25;100760.75;;;28.73
48894;BMP280;34710;35.798;139.446;2022-09-02T04:41:54;100765.25;;;28.74
48894;BMP280;34710;35.798;139.446;2022-09-02T04:44:23;100765.49;;;28.90
48894;BMP280;34710;35.798;139.446;2022-09-02T04:46:53;100763.81;;;28.78
48894;BMP280;34710;35.798;139.446;2022-09-02T04:49:22;100761.41;;;28.85
48894;BMP280;34710;35.798;139.446;2022-09-02T04:51:51;100762.71;;;28.78
48894;BMP280;34710;35.798;139.446;2022-09-02T04:54:21;100764.26;;;28.94
48894;BMP280;34710;35.798;139.446;2022-09-02T04:56:50;100764.25;;;28.73
48894;BMP280;34710;35.798;139.446;2022-09-02T04:59:19;100769.99;;;28.51
48894;BMP280;34710;35.798;139.446;2022-09-02T05:01:49;100769.79;;;28.74
48894;BMP280;34710;35.798;139.446;2022-09-02T05:04:19;100765.28;;;28.81
48894;BMP280;34710;35.798;139.446;2022-09-02T05:06:47;100758.51;;;28.55
48894;BMP280;34710;35.798;139.446;2022-09-02T05:09:17;100754.84;;;28.88
48894;BMP280;34710;35.798;139.446;2022-09-02T05:11:46;100755.26;;;28.57
48894;BMP280;34710;35.798;139.446;2022-09-02T05:14:16;100756.64;;;29.05
48894;BMP280;34710;35.798;139.446;2022-09-02T05:16:45;100756.66;;;28.80
48894;BMP280;34710;35.798;139.446;2022-09-02T05:19:14;100754.99;;;28.80
48894;BMP280;34710;35.798;139.446;2022-09-02T05:21:44;100760.13;;;28.88
48894;BMP280;34710;35.798;139.446;2022-09-02T05:24:13;100769.15;;;28.70
48894;BMP280;34710;35.798;139.446;2022-09-02T05:26:43;100771.37;;;29.12
48894;BMP280;34710;35.798;139.446;2022-09-02T05:29:13;100769.52;;;28.62
48894;BMP280;34710;35.798;139.446;2022-09-02T05:31:42;100762.65;;;29.13
48894;BMP280;34710;35.798;139.446;2022-09-02T05:34:11;100766.28;;;28.69
48894;BMP280;34710;35.798;139.446;2022-09-02T05:36:41;100765.65;;;29.04
48894;BMP280;34710;35.798;139.446;2022-09-02T05:39:11;100764.93;;;28.87
48894;BMP280;34710;35.798;139.446;2022-09-02T05:41:40;100764.07;;;29.33
48894;BMP280;34710;35.798;139.446;2022-09-02T05:44:10;100764.57;;;29.14
48894;BMP280;34710;35.798;139.446;2022-09-02T05:46:39;100766.13;;;28.95
48894;BMP280;34710;35.798;139.446;2022-09-02T05:49:08;100767.66;;;28.95
48894;BMP280;34710;35.798;139.446;2022-09-02T05:51:41;100768.69;;;29.29
48894;BMP280;34710;35.798;139.446;2022-09-02T05:54:13;100770.20;;;29.04
48894;BMP280;34710;35.798;139.446;2022-09-02T05:56:46;100769.42;;;28.92
48894;BMP280;34710;35.798;139.446;2022-09-02T05:59:16;100769.59;;;29.04
48894;BMP280;34710;35.798;139.446;2022-09-02T06:01:45;100771.63;;;29.10
48894;BMP280;34710;35.798;139.446;2022-09-02T06:04:15;100771.60;;;29.13
48894;BMP280;34710;35.798;139.446;2022-09-02T06:06:44;100769.95;;;29.06
48894;BMP280;34710;35.798;139.446;2022-09-02T06:09:16;100771.79;;;28.11
48894;BMP280;34710;35.798;139.446;2022-09-02T06:11:46;100771.38;;;27.93
48894;BMP280;34710;35.798;139.446;2022-09-02T06:14:16;100771.55;;;25.40
48894;BMP280;34710;35.798;139.446;2022-09-02T06:16:46;100767.63;;;25.94
48894;BMP280;34710;35.798;139.446;2022-09-02T06:19:16;100767.10;;;26.10
48894;BMP280;34710;35.798;139.446;2022-09-02T06:21:46;100769.06;;;25.48
48894;BMP280;34710;35.798;139.446;2022-09-02T06:24:16;100767.75;;;26.85
48894;BMP280;34710;35.798;139.446;2022-09-02T06:26:46;100773.75;;;26.97
48894;BMP280;34710;35.798;139.446;2022-09-02T06:29:16;100778.53;;;27.03
48894;BMP280;34710;35.798;139.446;2022-09-02T06:31:47;100783.93;;;27.14
48894;BMP280;34710;35.798;139.446;2022-09-02T06:34:19;100786.03;;;27.46
48894;BMP280;34710;35.798;139.446;2022-09-02T06:36:49;100786.50;;;26.09
48894;BMP280;34710;35.798;139.446;2022-09-02T06:39:20;100784.50;;;27.05
48894;BMP280;34710;35.798;139.446;2022-09-02T06:41:49;100789.28;;;27.09
48894;BMP280;34710;35.798;139.446;2022-09-02T06:44:19;100794.16;;;26.87
48894;BMP280;34710;35.798;139.446;2022-09-02T06:46:53;100798.72;;;25.86
48894;BMP280;34710;35.798;139.446;2022-09-02T06:49:24;100797.20;;;26.26
48894;BMP280;34710;35.798;139.446;2022-09-02T06:51:56;100793.96;;;26.26
48894;BMP280;34710;35.798;139.446;2022-09-02T06:54:26;100794.77;;;25.56
48894;BMP280;34710;35.798;139.446;2022-09-02T06:56:55;100798.02;;;26.72
48894;BMP280;34710;35.798;139.446;2022-09-02T06:59:25;100804.02;;;27.19
48894;BMP280;34710;35.798;139.446;2022-09-02T07:01:54;100811.33;;;25.75
48894;BMP280;34710;35.798;139.446;2022-09-02T07:04:23;100819.41;;;24.89
48894;BMP280;34710;35.798;139.446;2022-09-02T07:06:54;100813.22;;;26.37
48894;BMP280;34710;35.798;139.446;2022-09-02T07:09:25;100808.04;;;26.76
48894;BMP280;34710;35.798;139.446;2022-09-02T07:11:55;100807.59;;;26.07
48894;BMP280;34710;35.798;139.446;2022-09-02T07:14:25;100805.42;;;26.76
48894;BMP280;34710;35.798;139.446;2022-09-02T07:16:56;100803.20;;;26.91
48894;BMP280;34710;35.798;139.446;2022-09-02T07:19:25;100808.91;;;27.66
48894;BMP280;34710;35.798;139.446;2022-09-02T07:21:54;100811.46;;;28.03
48894;BMP280;34710;35.798;139.446;2022-09-02T07:24:24;100811.13;;;28.07
48894;BMP280;34710;35.798;139.446;2022-09-02T07:26:53;100808.88;;;28.36
48894;BMP280;34710;35.798;139.446;2022-09-02T07:29:24;100806.29;;;27.42
48894;BMP280;34710;35.798;139.446;2022-09-02T07:31:53;100803.63;;;27.70
48894;BMP280;34710;35.798;139.446;2022-09-02T07:34:23;100801.86;;;27.79
48894;BMP280;34710;35.798;139.446;2022-09-02T07:36:52;100802.40;;;27.34
48894;BMP280;34710;35.798;139.446;2022-09-02T07:39:21;100805.32;;;27.02
48894;BMP280;34710;35.798;139.446;2022-09-02T07:41:52;100813.84;;;25.81
48894;BMP280;34710;35.798;139.446;2022-09-02T07:44:21;100810.32;;;25.78
48894;BMP280;34710;35.798;139.446;2022-09-02T07:46:50;100809.19;;;26.12
48894;BMP280;34710;35.798;139.446;2022-09-02T07:49:20;100805.85;;;26.50
48894;BMP280;34710;35.798;139.446;2022-09-02T07:51:51;100812.21;;;25.66
48894;BMP280;34710;35.798;139.446;2022-09-02T07:54:22;100813.17;;;26.70
48894;BMP280;34710;35.798;139.446;2022-09-02T07:56:52;100812.46;;;27.32
48894;BMP280;34710;35.798;139.446;2022-09-02T07:59:22;100815.49;;;27.38
48894;BMP280;34710;35.798;139.446;2022-09-02T08:01:52;100816.29;;;27.14
48894;BMP280;34710;35.798;139.446;2022-09-02T08:04:22;100817.62;;;27.31
48894;BMP280;34710;35.798;139.446;2022-09-02T08:06:53;100815.44;;;27.61
48894;BMP280;34710;35.798;139.446;2022-09-02T08:09:23;100817.12;;;27.94
48894;BMP280;34710;35.798;139.446;2022-09-02T08:11:52;100818.58;;;28.16
48894;BMP280;34710;35.798;139.446;2022-09-02T08:14:24;100821.46;;;28.10
48894;BMP280;34710;35.798;139.446;2022-09-02T08:16:54;100822.49;;;28.27
48894;BMP280;34710;35.798;139.446;2022-09-02T08:19:24;100817.93;;;28.31
48894;BMP280;34710;35.798;139.446;2022-09-02T08:21:54;100813.36;;;28.24
48894;BMP280;34710;35.798;139.446;2022-09-02T08:24:23;100809.61;;;28.33
48894;BMP280;34710;35.798;139.446;2022-09-02T08:26:52;100810.81;;;27.97
48894;BMP280;34710;35.798;139.446;2022-09-02T08:29:22;100808.85;;;28.01
48894;BMP280;34710;35.798;139.446;2022-09-02T08:31:52;100808.39;;;28.08
48894;BMP280;34710;35.798;139.446;2022-09-02T08:34:21;100803.94;;;28.07
48894;BMP280;34710;35.798;139.446;2022-09-02T08:36:51;100805.17;;;28.13
48894;BMP280;34710;35.798;139.446;2022-09-02T08:39:20;100807.06;;;28.13
48894;BMP280;34710;35.798;139.446;2022-09-02T08:41:56;100808.66;;;28.09
48894;BMP280;34710;35.798;139.446;2022-09-02T08:44:35;100811.37;;;28.00
48894;BMP280;34710;35.798;139.446;2022-09-02T08:47:08;100811.04;;;28.10
48894;BMP280;34710;35.798;139.446;2022-09-02T08:49:42;100812.48;;;27.84
48894;BMP280;34710;35.798;139.446;2022-09-02T08:52:19;100811.35;;;27.91
48894;BMP280;34710;35.798;139.446;2022-09-02T08:54:53;100809.65;;;27.90
48894;BMP280;34710;35.798;139.446;2022-09-02T08:57:23;100806.99;;;27.73
48894;BMP280;34710;35.798;139.446;2022-09-02T08:59:53;100807.35;;;27.97
48894;BMP280;34710;35.798;139.446;2022-09-02T09:02:30;100803.37;;;27.96
48894;BMP280;34710;35.798;139.446;2022-09-02T09:05:15;100809.36;;;27.83
48894;BMP280;34710;35.798;139.446;2022-09-02T09:07:57;100816.24;;;27.78
48894;BMP280;34710;35.798;139.446;2022-09-02T09:10:33;100816.68;;;27.72
48894;BMP280;34710;35.798;139.446;2022-09-02T09:13:24;100818.12;;;27.74
48894;BMP280;34710;35.798;139.446;2022-09-02T09:16:05;100819.24;;;27.78
48894;BMP280;34710;35.798;139.446;2022-09-02T09:18:42;100815.19;;;27.64
48894;BMP280;34710;35.798;139.446;2022-09-02T09:21:15;100817.62;;;27.66
48894;BMP280;34710;35.798;139.446;2022-09-02T09:23:45;100821.73;;;27.73
48894;BMP280;34710;35.798;139.446;2022-09-02T09:26:19;100826.37;;;27.59
48894;BMP280;34710;35.798;139.446;2022-09-02T09:28:52;100825.23;;;27.84
48894;BMP280;34710;35.798;139.446;2022-09-02T09:31:23;100821.19;;;27.80
48894;BMP280;34710;35.798;139.446;2022-09-02T09:33:57;100821.34;;;27.69
48894;BMP280;34710;35.798;139.446;2022-09-02T09:36:55;100820.36;;;27.67
48894;BMP280;34710;35.798;139.446;2022-09-02T09:39:26;100820.41;;;27.72
48894;BMP280;34710;35.798;139.446;2022-09-02T09:41:58;100820.16;;;27.87
48894;BMP280;34710;35.798;139.446;2022-09-02T09:44:44;100821.04;;;28.00
48894;BMP280;34710;35.798;139.446;2022-09-02T09:47:17;100821.56;;;27.88
48894;BMP280;34710;35.798;139.446;2022-09-02T09:49:48;100824.75;;;27.70
48894;BMP280;34710;35.798;139.446;2022-09-02T09:52:28;100825.06;;;27.69
48894;BMP280;34710;35.798;139.446;2022-09-02T09:55:16;100828.85;;;27.55
48894;BMP280;34710;35.798;139.446;2022-09-02T09:57:48;100835.15;;;27.43
48894;BMP280;34710;35.798;139.446;2022-09-02T10:00:26;100836.82;;;27.68
48894;BMP280;34710;35.798;139.446;2022-09-02T10:02:58;100836.61;;;27.76
48894;BMP280;34710;35.798;139.446;2022-09-02T10:05:32;100841.68;;;27.85
48894;BMP280;34710;35.798;139.446;2022-09-02T10:08:04;100845.80;;;27.88
48894;BMP280;34710;35.798;139.446;2022-09-02T10:10:33;100851.99;;;27.75
48894;BMP280;34710;35.798;139.446;2022-09-02T10:13:18;100855.77;;;27.70
48894;BMP280;34710;35.798;139.446;2022-09-02T10:16:03;100856.42;;;28.04
48894;BMP280;34710;35.798;139.446;2022-09-02T10:18:39;100857.16;;;27.71
48894;BMP280;34710;35.798;139.446;2022-09-02T10:21:23;100864.34;;;27.57
48894;BMP280;34710;35.798;139.446;2022-09-02T10:24:01;100865.81;;;27.50
48894;BMP280;34710;35.798;139.446;2022-09-02T10:26:37;100871.44;;;27.61
48894;BMP280;34710;35.798;139.446;2022-09-02T10:29:26;100873.44;;;27.68
48894;BMP280;34710;35.798;139.446;2022-09-02T10:32:27;100875.04;;;27.55
48894;BMP280;34710;35.798;139.446;2022-09-02T10:35:08;100877.49;;;27.85
48894;BMP280;34710;35.798;139.446;2022-09-02T10:37:57;100878.62;;;27.50
48894;BMP280;34710;35.798;139.446;2022-09-02T10:40:35;100884.38;;;27.29
48894;BMP280;34710;35.798;139.446;2022-09-02T10:43:08;100889.30;;;27.74
48894;BMP280;34710;35.798;139.446;2022-09-02T10:45:42;100892.99;;;27.53
48894;BMP280;34710;35.798;139.446;2022-09-02T10:48:23;100895.31;;;27.63
48894;BMP280;34710;35.798;139.446;2022-09-02T10:51:03;100899.68;;;27.64
48894;BMP280;34710;35.798;139.446;2022-09-02T10:53:44;100904.38;;;27.57
48894;BMP280;34710;35.798;139.446;2022-09-02T10:56:20;100909.58;;;27.45
48894;BMP280;34710;35.798;139.446;2022-09-02T10:58:54;100911.12;;;27.47
48894;BMP280;34710;35.798;139.446;2022-09-02T11:01:29;100911.88;;;27.81
48894;BMP280;34710;35.798;139.446;2022-09-02T11:04:07;100911.07;;;27.66
48894;BMP280;34710;35.798;139.446;2022-09-02T11:06:39;100912.05;;;27.34
48894;BMP280;34710;35.798;139.446;2022-09-02T11:09:13;100914.33;;;27.55
48894;BMP280;34710;35.798;139.446;2022-09-02T11:11:52;100915.92;;;27.31
48894;BMP280;34710;35.798;139.446;2022-09-02T11:14:25;100920.34;;;27.67
48894;BMP280;34710;35.798;139.446;2022-09-02T11:16:58;100920.78;;;27.64
48894;BMP280;34710;35.798;139.446;2022-09-02T11:19:33;100922.97;;;27.36
48894;BMP280;34710;35.798;139.446;2022-09-02T11:22:13;100917.31;;;27.49
48894;BMP280;34710;35.798;139.446;2022-09-02T11:24:50;100914.43;;;27.71
48894;BMP280;34710;35.798;139.446;2022-09-02T11:27:28;100912.55;;;27.70
48894;BMP280;34710;35.798;139.446;2022-09-02T11:30:03;100914.88;;;27.30
48894;BMP280;34710;35.798;139.446;2022-09-02T11:32:40;100915.52;;;27.61
48894;BMP280;34710;35.798;139.446;2022-09-02T11:35:17;100915.17;;;27.27
48894;BMP280;34710;35.798;139.446;2022-09-02T11:37:51;100918.48;;;26.83
48894;BMP280;34710;35.798;139.446;2022-09-02T11:40:27;100916.36;;;27.00
48894;BMP280;34710;35.798;139.446;2022-09-02T11:43:08;100915.48;;;27.21
48894;BMP280;34710;35.798;139.446;2022-09-02T11:46:04;100917.70;;;26.89
48894;BMP280;34710;35.798;139.446;2022-09-02T11:48:56;100916.19;;;26.82
48894;BMP280;34710;35.798;139.446;2022-09-02T11:51:47;100916.37;;;27.05
48894;BMP280;34710;35.798;139.446;2022-09-02T11:54:24;100915.76;;;26.99
48894;BMP280;34710;35.798;139.446;2022-09-02T11:56:59;100913.56;;;27.00
48894;BMP280;34710;35.798;139.446;2022-09-02T12:01:26;100921.44;;;27.77
48894;BMP280;34710;35.798;139.446;2022-09-02T12:04:01;100927.03;;;26.75
48894;BMP280;34710;35.798;139.446;2022-09-02T12:06:32;100929.74;;;26.78
48894;BMP280;34710;35.798;139.446;2022-09-02T12:09:06;100930.19;;;26.85
48894;BMP280;34710;35.798;139.446;2022-09-02T12:12:03;100931.00;;;26.93
48894;BMP280;34710;35.798;139.446;2022-09-02T12:15:10;100928.96;;;26.53
48894;BMP280;34710;35.798;139.446;2022-09-02T12:18:04;100927.43;;;27.05
48894;BMP280;34710;35.798;139.446;2022-09-02T12:21:09;100925.72;;;27.64
48894;BMP280;34710;35.798;139.446;2022-09-02T12:24:19;100920.05;;;27.47
48894;BMP280;34710;35.798;139.446;2022-09-02T12:27:30;100918.31;;;27.57
48894;BMP280;34710;35.798;139.446;2022-09-02T12:30:00;100911.86;;;26.95
48894;BMP280;34710;35.798;139.446;2022-09-02T12:33:30;100911.07;;;27.19
48894;BMP280;34710;35.798;139.446;2022-09-02T12:36:00;100911.58;;;27.00
48894;BMP280;34710;35.798;139.446;2022-09-02T12:38:33;100912.60;;;27.11
48894;BMP280;34710;35.798;139.446;2022-09-02T12:41:21;100910.29;;;27.09
48894;BMP280;34710;35.798;139.446;2022-09-02T12:43:59;100911.38;;;26.91
48894;BMP280;34710;35.798;139.446;2022-09-02T12:46:49;100914.60;;;26.91
48894;BMP280;34710;35.798;139.446;2022-09-02T12:49:40;100911.56;;;26.88
48894;BMP280;34710;35.798;139.446;2022-09-02T12:52:38;100904.44;;;27.17
48894;BMP280;34710;35.798;139.446;2022-09-02T12:55:13;100900.05;;;27.02
48894;BMP280;34710;35.798;139.446;2022-09-02T12:57:46;100901.81;;;26.95
48894;BMP280;34710;35.798;139.446;2022-09-02T13:00:24;100907.72;;;26.99
48894;BMP280;34710;35.798;139.446;2022-09-02T13:03:05;100908.24;;;26.92
48894;BMP280;34710;35.798;139.446;2022-09-02T13:05:52;100903.40;;;27.01
48894;BMP280;34710;35.798;139.446;2022-09-02T13:10:36;100905.09;;;27.87
48894;BMP280;34710;35.798;139.446;2022-09-02T13:13:45;100903.91;;;26.76
48894;BMP280;34710;35.798;139.446;2022-09-02T13:16:27;100902.24;;;26.76
48894;BMP280;34710;35.798;139.446;2022-09-02T13:19:15;100904.42;;;27.02
48894;BMP280;34710;35.798;139.446;2022-09-02T13:22:12;100906.03;;;27.09
48894;BMP280;34710;35.798;139.446;2022-09-02T13:25:24;100910.04;;;26.39
48894;BMP280;34710;35.798;139.446;2022-09-02T13:30:07;100911.46;;;26.98
48894;BMP280;34710;35.798;139.446;2022-09-02T13:32:38;100914.66;;;25.79
48894;BMP280;34710;35.798;139.446;2022-09-02T13:35:16;100914.71;;;24.45
48894;BMP280;34710;35.798;139.446;2022-09-02T13:37:54;100913.28;;;23.60
48894;BMP280;34710;35.798;139.446;2022-09-02T13:40:26;100911.59;;;22.04
48894;BMP280;34710;35.798;139.446;2022-09-02T13:42:56;100912.86;;;21.72
48894;BMP280;34710;35.798;139.446;2022-09-02T13:45:28;100906.00;;;22.91
48894;BMP280;34710;35.798;139.446;2022-09-02T13:47:59;100904.89;;;23.16
48894;BMP280;34710;35.798;139.446;2022-09-02T13:50:30;100902.85;;;23.30
48894;BMP280;34710;35.798;139.446;2022-09-02T13:53:03;100899.27;;;23.34
48894;BMP280;34710;35.798;139.446;2022-09-02T13:55:34;100897.97;;;24.17
48894;BMP280;34710;35.798;139.446;2022-09-02T13:58:05;100902.50;;;24.86
48894;BMP280;34710;35.798;139.446;2022-09-02T14:00:37;100902.28;;;24.56
48894;BMP280;34710;35.798;139.446;2022-09-02T14:03:09;100901.81;;;24.59
48894;BMP280;34710;35.798;139.446;2022-09-02T14:05:43;100904.28;;;25.13
48894;BMP280;34710;35.798;139.446;2022-09-02T14:08:17;100899.19;;;25.10
48894;BMP280;34710;35.798;139.446;2022-09-02T14:10:48;100900.91;;;25.39
48894;BMP280;34710;35.798;139.446;2022-09-02T14:13:18;100900.06;;;26.01